sensor_id;sensor_type;location;lat;lon;timestamp;P1;durP1;ratioP1;P2;durP2;ratioP2
41897;SDS011;27576;53.366;-1.498;2024-01-15T00:01:11;2.13;;;1.40;;
41897;SDS011;27576;53.366;-1.498;2024-01-15T00:03:37;3.08;;;1.80;;
41897;SDS011;27576;53.366;-1.498;2024-01-15T00:06:02;3.53;;;2.33;;
41897;SDS011;27576;53.366;-1.498;2024-01-15T00:08:28;4.82;;;2.40;;
41897;SDS011;27576;53.366;-1.498;2024-01-15T00:10:53;5.88;;;2.47;;
41897;SDS011;27576;53.366;-1.498;2024-01-15T00:13:19;3.10;;;2.17;;
41897;SDS011;27576;53.366;-1.498;2024-01-15T00:15:44;3.63;;;1.83;;
41897;SDS011;27576;53.366;-1.498;2024-01-15T00:18:09;4.63;;;1.80;;
41897;SDS011;27576;53.366;-1.498;2024-01-15T00:20:35;1.80;;;1.70;;
41897;SDS011;27576;53.366;-1.498;2024-01-15T00:23:00;1.80;;;1.57;;
41897;SDS011;27576;53.366;-1.498;2024-01-15T00:25:26;3.42;;;1.65;;
41897;SDS011;27576;53.366;-1.498;2024-01-15T00:27:51;3.93;;;1.90;;
41897;SDS011;27576;53.366;-1.498;2024-01-15T00:30:16;1.80;;;1.70;;
41897;SDS011;27576;53.366;-1.498;2024-01-15T00:32:42;4.77;;;1.90;;
41897;SDS011;27576;53.366;-1.498;2024-01-15T00:35:07;2.53;;;1.83;;
41897;SDS011;27576;53.366;-1.498;2024-01-15T00:37:33;2.77;;;1.70;;
41897;SDS011;27576;53.366;-1.498;2024-01-15T00:39:58;4.03;;;1.80;;
41897;SDS011;27576;53.366;-1.498;2024-01-15T00:42:23;2.90;;;1.60;;
41897;SDS011;27576;53.366;-1.498;2024-01-15T00:44:49;4.33;;;1.83;;
41897;SDS011;27576;53.366;-1.498;2024-01-15T00:47:14;1.80;;;1.65;;
41897;SDS011;27576;53.366;-1.498;2024-01-15T00:49:40;4.00;;;1.80;;
41897;SDS011;27576;53.366;-1.498;2024-01-15T00:52:05;2.50;;;2.10;;
41897;SDS011;27576;53.366;-1.498;2024-01-15T00:54:31;3.07;;;1.50;;
41897;SDS011;27576;53.366;-1.498;2024-01-15T00:56:56;4.83;;;1.80;;
41897;SDS011;27576;53.366;-1.498;2024-01-15T00:59:21;5.53;;;1.95;;
41897;SDS011;27576;53.366;-1.498;2024-01-15T01:01:47;2.70;;;1.70;;
41897;SDS011;27576;53.366;-1.498;2024-01-15T01:04:13;6.87;;;1.97;;
41897;SDS011;27576;53.366;-1.498;2024-01-15T01:06:39;2.07;;;1.47;;
41897;SDS011;27576;53.366;-1.498;2024-01-15T01:09:05;2.75;;;1.60;;
41897;SDS011;27576;53.366;-1.498;2024-01-15T01:11:30;2.90;;;1.97;;
41897;SDS011;27576;53.366;-1.498;2024-01-15T01:13:56;2.67;;;1.60;;
41897;SDS011;27576;53.366;-1.498;2024-01-15T01:16:21;2.80;;;1.70;;
41897;SDS011;27576;53.366;-1.498;2024-01-15T01:18:47;3.80;;;1.97;;
41897;SDS011;27576;53.366;-1.498;2024-01-15T01:21:12;5.97;;;2.15;;
41897;SDS011;27576;53.366;-1.498;2024-01-15T01:23:38;5.00;;;1.90;;
41897;SDS011;27576;53.366;-1.498;2024-01-15T01:26:03;2.35;;;1.77;;
41897;SDS011;27576;53.366;-1.498;2024-01-15T01:28:28;4.07;;;1.90;;
41897;SDS011;27576;53.366;-1.498;2024-01-15T01:30:54;3.87;;;1.70;;
41897;SDS011;27576;53.366;-1.498;2024-01-15T01:33:19;2.83;;;1.90;;
41897;SDS011;27576;53.366;-1.498;2024-01-15T01:35:45;3.40;;;1.80;;
41897;SDS011;27576;53.366;-1.498;2024-01-15T01:38:11;3.55;;;1.83;;
41897;SDS011;27576;53.366;-1.498;2024-01-15T01:40:37;3.70;;;2.00;;
41897;SDS011;27576;53.366;-1.498;2024-01-15T01:43:03;3.60;;;1.80;;
41897;SDS011;27576;53.366;-1.498;2024-01-15T01:45:30;1.70;;;1.60;;
41897;SDS011;27576;53.366;-1.498;2024-01-15T01:47:55;4.13;;;1.73;;
41897;SDS011;27576;53.366;-1.498;2024-01-15T01:50:21;6.13;;;1.97;;
41897;SDS011;27576;53.366;-1.498;2024-01-15T01:52:47;3.17;;;2.07;;
41897;SDS011;27576;53.366;-1.498;2024-01-15T01:55:13;1.83;;;1.70;;
41897;SDS011;27576;53.366;-1.498;2024-01-15T01:57:39;1.70;;;1.47;;
41897;SDS011;27576;53.366;-1.498;2024-01-15T02:00:06;3.70;;;1.67;;
41897;SDS011;27576;53.366;-1.498;2024-01-15T02:02:33;3.70;;;1.80;;
41897;SDS011;27576;53.366;-1.498;2024-01-15T02:04:59;3.42;;;1.80;;
41897;SDS011;27576;53.366;-1.498;2024-01-15T02:07:24;2.83;;;1.83;;
41897;SDS011;27576;53.366;-1.498;2024-01-15T02:09:50;4.53;;;2.57;;
41897;SDS011;27576;53.366;-1.498;2024-01-15T02:12:16;5.63;;;1.80;;
41897;SDS011;27576;53.366;-1.498;2024-01-15T02:14:41;1.70;;;1.52;;
41897;SDS011;27576;53.366;-1.498;2024-01-15T02:17:07;3.17;;;1.97;;
41897;SDS011;27576;53.366;-1.498;2024-01-15T02:19:32;3.10;;;1.70;;
41897;SDS011;27576;53.366;-1.498;2024-01-15T02:21:58;2.43;;;1.60;;
41897;SDS011;27576;53.366;-1.498;2024-01-15T02:24:23;2.47;;;1.70;;
41897;SDS011;27576;53.366;-1.498;2024-01-15T02:26:48;3.53;;;1.80;;
41897;SDS011;27576;53.366;-1.498;2024-01-15T02:29:15;4.57;;;2.13;;
41897;SDS011;27576;53.366;-1.498;2024-01-15T02:31:40;4.70;;;2.17;;
41897;SDS011;27576;53.366;-1.498;2024-01-15T02:34:06;3.93;;;1.93;;
41897;SDS011;27576;53.366;-1.498;2024-01-15T02:36:31;4.93;;;1.83;;
41897;SDS011;27576;53.366;-1.498;2024-01-15T02:38:57;3.83;;;1.73;;
41897;SDS011;27576;53.366;-1.498;2024-01-15T02:41:22;1.80;;;1.70;;
41897;SDS011;27576;53.366;-1.498;2024-01-15T02:43:48;3.93;;;1.97;;
41897;SDS011;27576;53.366;-1.498;2024-01-15T02:46:13;5.37;;;1.97;;
41897;SDS011;27576;53.366;-1.498;2024-01-15T02:48:39;3.70;;;1.80;;
41897;SDS011;27576;53.366;-1.498;2024-01-15T02:51:05;6.20;;;2.00;;
41897;SDS011;27576;53.366;-1.498;2024-01-15T02:53:30;4.87;;;1.70;;
41897;SDS011;27576;53.366;-1.498;2024-01-15T02:55:55;3.93;;;1.97;;
41897;SDS011;27576;53.366;-1.498;2024-01-15T02:58:21;2.17;;;1.80;;
41897;SDS011;27576;53.366;-1.498;2024-01-15T03:00:47;4.63;;;2.10;;
41897;SDS011;27576;53.366;-1.498;2024-01-15T03:03:12;3.43;;;1.90;;
41897;SDS011;27576;53.366;-1.498;2024-01-15T03:05:38;3.07;;;1.53;;
41897;SDS011;27576;53.366;-1.498;2024-01-15T03:08:03;2.90;;;1.60;;
41897;SDS011;27576;53.366;-1.498;2024-01-15T03:10:29;2.70;;;1.73;;
41897;SDS011;27576;53.366;-1.498;2024-01-15T03:12:56;2.40;;;1.50;;
41897;SDS011;27576;53.366;-1.498;2024-01-15T03:15:22;7.67;;;2.10;;
41897;SDS011;27576;53.366;-1.498;2024-01-15T03:17:47;3.13;;;1.93;;
41897;SDS011;27576;53.366;-1.498;2024-01-15T03:20:13;4.13;;;1.43;;
41897;SDS011;27576;53.366;-1.498;2024-01-15T03:22:38;2.37;;;1.57;;
41897;SDS011;27576;53.366;-1.498;2024-01-15T03:25:04;2.77;;;1.67;;
41897;SDS011;27576;53.366;-1.498;2024-01-15T03:27:29;3.87;;;2.17;;
41897;SDS011;27576;53.366;-1.498;2024-01-15T03:29:55;2.87;;;1.50;;
41897;SDS011;27576;53.366;-1.498;2024-01-15T03:32:20;2.87;;;1.60;;
41897;SDS011;27576;53.366;-1.498;2024-01-15T03:34:46;1.83;;;1.30;;
41897;SDS011;27576;53.366;-1.498;2024-01-15T03:37:12;3.53;;;1.80;;
41897;SDS011;27576;53.366;-1.498;2024-01-15T03:39:38;1.63;;;1.50;;
41897;SDS011;27576;53.366;-1.498;2024-01-15T03:42:03;3.77;;;1.57;;
41897;SDS011;27576;53.366;-1.498;2024-01-15T03:44:29;4.70;;;1.90;;
41897;SDS011;27576;53.366;-1.498;2024-01-15T03:46:54;8.60;;;2.07;;
41897;SDS011;27576;53.366;-1.498;2024-01-15T03:49:20;3.80;;;2.10;;
41897;SDS011;27576;53.366;-1.498;2024-01-15T03:51:45;5.10;;;1.60;;
41897;SDS011;27576;53.366;-1.498;2024-01-15T03:54:11;3.30;;;1.83;;
41897;SDS011;27576;53.366;-1.498;2024-01-15T03:56:36;2.00;;;1.80;;
41897;SDS011;27576;53.366;-1.498;2024-01-15T03:59:01;2.20;;;1.37;;
41897;SDS011;27576;53.366;-1.498;2024-01-15T04:01:27;3.47;;;1.60;;
41897;SDS011;27576;53.366;-1.498;2024-01-15T04:03:52;3.07;;;1.60;;
41897;SDS011;27576;53.366;-1.498;2024-01-15T04:06:18;1.67;;;1.57;;
41897;SDS011;27576;53.366;-1.498;2024-01-15T04:08:43;1.50;;;1.40;;
41897;SDS011;27576;53.366;-1.498;2024-01-15T04:11:08;1.63;;;1.50;;
41897;SDS011;27576;53.366;-1.498;2024-01-15T04:13:34;2.20;;;1.50;;
41897;SDS011;27576;53.366;-1.498;2024-01-15T04:15:59;2.00;;;1.27;;
41897;SDS011;27576;53.366;-1.498;2024-01-15T04:18:25;2.53;;;1.60;;
41897;SDS011;27576;53.366;-1.498;2024-01-15T04:20:51;1.87;;;1.40;;
41897;SDS011;27576;53.366;-1.498;2024-01-15T04:23:16;2.83;;;1.70;;
41897;SDS011;27576;53.366;-1.498;2024-01-15T04:25:41;1.90;;;1.40;;
41897;SDS011;27576;53.366;-1.498;2024-01-15T04:28:08;1.97;;;1.53;;
41897;SDS011;27576;53.366;-1.498;2024-01-15T04:30:34;5.97;;;1.87;;
41897;SDS011;27576;53.366;-1.498;2024-01-15T04:32:59;1.80;;;1.47;;
41897;SDS011;27576;53.366;-1.498;2024-01-15T04:35:24;1.67;;;1.20;;
41897;SDS011;27576;53.366;-1.498;2024-01-15T04:37:50;2.00;;;1.50;;
41897;SDS011;27576;53.366;-1.498;2024-01-15T04:40:15;1.97;;;1.30;;
41897;SDS011;27576;53.366;-1.498;2024-01-15T04:42:41;1.57;;;1.40;;
41897;SDS011;27576;53.366;-1.498;2024-01-15T04:45:06;2.13;;;1.47;;
41897;SDS011;27576;53.366;-1.498;2024-01-15T04:47:32;2.67;;;1.47;;
41897;SDS011;27576;53.366;-1.498;2024-01-15T04:49:57;2.80;;;1.37;;
41897;SDS011;27576;53.366;-1.498;2024-01-15T04:52:22;2.00;;;1.27;;
41897;SDS011;27576;53.366;-1.498;2024-01-15T04:54:48;2.73;;;1.40;;
41897;SDS011;27576;53.366;-1.498;2024-01-15T04:57:14;2.07;;;1.87;;
41897;SDS011;27576;53.366;-1.498;2024-01-15T04:59:40;3.17;;;1.30;;
41897;SDS011;27576;53.366;-1.498;2024-01-15T05:02:05;2.73;;;1.40;;
41897;SDS011;27576;53.366;-1.498;2024-01-15T05:04:31;3.00;;;1.77;;
41897;SDS011;27576;53.366;-1.498;2024-01-15T05:06:57;2.97;;;1.40;;
41897;SDS011;27576;53.366;-1.498;2024-01-15T05:09:23;2.47;;;1.63;;
41897;SDS011;27576;53.366;-1.498;2024-01-15T05:11:48;1.90;;;1.40;;
41897;SDS011;27576;53.366;-1.498;2024-01-15T05:14:14;2.83;;;1.40;;
41897;SDS011;27576;53.366;-1.498;2024-01-15T05:16:39;2.50;;;1.50;;
41897;SDS011;27576;53.366;-1.498;2024-01-15T05:19:11;2.00;;;1.70;;
41897;SDS011;27576;53.366;-1.498;2024-01-15T05:21:36;2.57;;;1.43;;
41897;SDS011;27576;53.366;-1.498;2024-01-15T05:24:02;1.90;;;1.40;;
41897;SDS011;27576;53.366;-1.498;2024-01-15T05:26:27;1.40;;;1.30;;
41897;SDS011;27576;53.366;-1.498;2024-01-15T05:28:53;4.50;;;1.40;;
41897;SDS011;27576;53.366;-1.498;2024-01-15T05:31:18;2.43;;;1.20;;
41897;SDS011;27576;53.366;-1.498;2024-01-15T05:33:43;1.30;;;1.20;;
41897;SDS011;27576;53.366;-1.498;2024-01-15T05:36:09;3.60;;;1.43;;
41897;SDS011;27576;53.366;-1.498;2024-01-15T05:38:34;1.57;;;1.17;;
41897;SDS011;27576;53.366;-1.498;2024-01-15T05:40:59;2.30;;;1.30;;
41897;SDS011;27576;53.366;-1.498;2024-01-15T05:43:25;3.27;;;1.50;;
41897;SDS011;27576;53.366;-1.498;2024-01-15T05:45:50;3.50;;;1.37;;
41897;SDS011;27576;53.366;-1.498;2024-01-15T05:48:16;3.23;;;1.30;;
41897;SDS011;27576;53.366;-1.498;2024-01-15T05:50:41;2.83;;;1.33;;
41897;SDS011;27576;53.366;-1.498;2024-01-15T05:53:07;3.67;;;1.63;;
41897;SDS011;27576;53.366;-1.498;2024-01-15T05:55:32;3.50;;;1.43;;
41897;SDS011;27576;53.366;-1.498;2024-01-15T05:57:57;2.60;;;1.30;;
41897;SDS011;27576;53.366;-1.498;2024-01-15T06:00:23;3.03;;;1.40;;
41897;SDS011;27576;53.366;-1.498;2024-01-15T06:02:48;2.47;;;1.30;;
41897;SDS011;27576;53.366;-1.498;2024-01-15T06:05:14;4.30;;;1.60;;
41897;SDS011;27576;53.366;-1.498;2024-01-15T06:07:39;3.10;;;1.67;;
41897;SDS011;27576;53.366;-1.498;2024-01-15T06:10:05;3.57;;;1.50;;
41897;SDS011;27576;53.366;-1.498;2024-01-15T06:12:31;1.73;;;1.27;;
41897;SDS011;27576;53.366;-1.498;2024-01-15T06:14:57;1.20;;;1.10;;
41897;SDS011;27576;53.366;-1.498;2024-01-15T06:17:23;1.90;;;1.47;;
41897;SDS011;27576;53.366;-1.498;2024-01-15T06:19:48;2.63;;;1.37;;
41897;SDS011;27576;53.366;-1.498;2024-01-15T06:22:13;1.80;;;1.37;;
41897;SDS011;27576;53.366;-1.498;2024-01-15T06:24:39;4.40;;;1.53;;
41897;SDS011;27576;53.366;-1.498;2024-01-15T06:27:04;1.50;;;1.40;;
41897;SDS011;27576;53.366;-1.498;2024-01-15T06:29:29;2.90;;;1.50;;
41897;SDS011;27576;53.366;-1.498;2024-01-15T06:31:55;3.63;;;1.60;;
41897;SDS011;27576;53.366;-1.498;2024-01-15T06:34:20;1.43;;;1.33;;
41897;SDS011;27576;53.366;-1.498;2024-01-15T06:36:46;2.17;;;1.40;;
41897;SDS011;27576;53.366;-1.498;2024-01-15T06:39:11;2.70;;;1.33;;
41897;SDS011;27576;53.366;-1.498;2024-01-15T06:41:37;2.57;;;1.47;;
41897;SDS011;27576;53.366;-1.498;2024-01-15T06:44:08;2.57;;;1.50;;
41897;SDS011;27576;53.366;-1.498;2024-01-15T06:46:37;2.20;;;1.37;;
41897;SDS011;27576;53.366;-1.498;2024-01-15T06:49:07;3.27;;;1.43;;
41897;SDS011;27576;53.366;-1.498;2024-01-15T06:51:32;1.97;;;1.50;;
41897;SDS011;27576;53.366;-1.498;2024-01-15T06:53:59;2.73;;;1.50;;
41897;SDS011;27576;53.366;-1.498;2024-01-15T06:56:24;3.20;;;1.57;;
41897;SDS011;27576;53.366;-1.498;2024-01-15T06:58:49;3.33;;;2.10;;
41897;SDS011;27576;53.366;-1.498;2024-01-15T07:01:15;2.03;;;1.50;;
41897;SDS011;27576;53.366;-1.498;2024-01-15T07:03:40;4.53;;;2.20;;
41897;SDS011;27576;53.366;-1.498;2024-01-15T07:06:06;2.63;;;1.67;;
41897;SDS011;27576;53.366;-1.498;2024-01-15T07:08:31;1.70;;;1.60;;
41897;SDS011;27576;53.366;-1.498;2024-01-15T07:10:57;5.57;;;1.80;;
41897;SDS011;27576;53.366;-1.498;2024-01-15T07:13:24;1.93;;;1.83;;
41897;SDS011;27576;53.366;-1.498;2024-01-15T07:15:49;4.50;;;1.63;;
41897;SDS011;27576;53.366;-1.498;2024-01-15T07:18:15;4.43;;;1.50;;
41897;SDS011;27576;53.366;-1.498;2024-01-15T07:20:41;3.37;;;1.60;;
41897;SDS011;27576;53.366;-1.498;2024-01-15T07:23:07;1.80;;;1.50;;
41897;SDS011;27576;53.366;-1.498;2024-01-15T07:25:33;5.00;;;1.80;;
41897;SDS011;27576;53.366;-1.498;2024-01-15T07:27:58;4.17;;;2.03;;
41897;SDS011;27576;53.366;-1.498;2024-01-15T07:30:25;5.30;;;2.03;;
41897;SDS011;27576;53.366;-1.498;2024-01-15T07:32:50;2.40;;;1.70;;
41897;SDS011;27576;53.366;-1.498;2024-01-15T07:35:17;3.20;;;1.53;;
41897;SDS011;27576;53.366;-1.498;2024-01-15T07:37:43;3.80;;;1.87;;
41897;SDS011;27576;53.366;-1.498;2024-01-15T07:40:09;2.00;;;1.40;;
41897;SDS011;27576;53.366;-1.498;2024-01-15T07:42:35;4.30;;;2.00;;
41897;SDS011;27576;53.366;-1.498;2024-01-15T07:45:01;2.20;;;1.50;;
41897;SDS011;27576;53.366;-1.498;2024-01-15T07:47:26;2.23;;;2.03;;
41897;SDS011;27576;53.366;-1.498;2024-01-15T07:49:52;2.53;;;1.47;;
41897;SDS011;27576;53.366;-1.498;2024-01-15T07:52:18;2.03;;;1.73;;
41897;SDS011;27576;53.366;-1.498;2024-01-15T07:54:44;3.07;;;1.80;;
41897;SDS011;27576;53.366;-1.498;2024-01-15T07:57:10;3.13;;;1.90;;
41897;SDS011;27576;53.366;-1.498;2024-01-15T07:59:35;2.53;;;1.50;;
41897;SDS011;27576;53.366;-1.498;2024-01-15T08:02:01;1.87;;;1.73;;
41897;SDS011;27576;53.366;-1.498;2024-01-15T08:04:26;3.53;;;1.70;;
41897;SDS011;27576;53.366;-1.498;2024-01-15T08:06:52;2.60;;;1.70;;
41897;SDS011;27576;53.366;-1.498;2024-01-15T08:09:17;2.13;;;1.60;;
41897;SDS011;27576;53.366;-1.498;2024-01-15T08:11:43;4.23;;;1.70;;
41897;SDS011;27576;53.366;-1.498;2024-01-15T08:14:09;2.07;;;1.87;;
41897;SDS011;27576;53.366;-1.498;2024-01-15T08:16:35;2.00;;;1.53;;
41897;SDS011;27576;53.366;-1.498;2024-01-15T08:19:01;3.20;;;1.40;;
41897;SDS011;27576;53.366;-1.498;2024-01-15T08:21:27;3.87;;;1.77;;
41897;SDS011;27576;53.366;-1.498;2024-01-15T08:23:57;2.37;;;1.47;;
41897;SDS011;27576;53.366;-1.498;2024-01-15T08:26:22;3.93;;;1.87;;
41897;SDS011;27576;53.366;-1.498;2024-01-15T08:28:48;4.10;;;1.70;;
41897;SDS011;27576;53.366;-1.498;2024-01-15T08:31:14;4.43;;;1.77;;
41897;SDS011;27576;53.366;-1.498;2024-01-15T08:33:42;2.17;;;1.63;;
41897;SDS011;27576;53.366;-1.498;2024-01-15T08:36:08;3.93;;;2.00;;
41897;SDS011;27576;53.366;-1.498;2024-01-15T08:38:34;2.97;;;1.83;;
41897;SDS011;27576;53.366;-1.498;2024-01-15T08:41:00;4.83;;;2.10;;
41897;SDS011;27576;53.366;-1.498;2024-01-15T08:43:25;6.10;;;1.90;;
41897;SDS011;27576;53.366;-1.498;2024-01-15T08:45:52;7.07;;;2.27;;
41897;SDS011;27576;53.366;-1.498;2024-01-15T08:48:17;3.70;;;1.80;;
41897;SDS011;27576;53.366;-1.498;2024-01-15T08:50:42;8.43;;;2.20;;
41897;SDS011;27576;53.366;-1.498;2024-01-15T08:53:11;5.13;;;2.40;;
41897;SDS011;27576;53.366;-1.498;2024-01-15T08:55:37;3.57;;;2.17;;
41897;SDS011;27576;53.366;-1.498;2024-01-15T08:58:02;4.90;;;2.13;;
41897;SDS011;27576;53.366;-1.498;2024-01-15T09:00:28;3.87;;;1.90;;
41897;SDS011;27576;53.366;-1.498;2024-01-15T09:02:53;6.53;;;2.40;;
41897;SDS011;27576;53.366;-1.498;2024-01-15T09:05:19;6.87;;;2.60;;
41897;SDS011;27576;53.366;-1.498;2024-01-15T09:07:44;7.90;;;2.53;;
41897;SDS011;27576;53.366;-1.498;2024-01-15T09:10:11;6.00;;;2.10;;
41897;SDS011;27576;53.366;-1.498;2024-01-15T09:12:36;4.33;;;1.97;;
41897;SDS011;27576;53.366;-1.498;2024-01-15T09:15:01;4.67;;;1.77;;
41897;SDS011;27576;53.366;-1.498;2024-01-15T09:17:29;5.90;;;2.50;;
41897;SDS011;27576;53.366;-1.498;2024-01-15T09:19:54;4.07;;;1.90;;
41897;SDS011;27576;53.366;-1.498;2024-01-15T09:22:20;6.33;;;1.93;;
41897;SDS011;27576;53.366;-1.498;2024-01-15T09:24:45;9.80;;;2.47;;
41897;SDS011;27576;53.366;-1.498;2024-01-15T09:27:11;3.13;;;1.87;;
41897;SDS011;27576;53.366;-1.498;2024-01-15T09:29:36;8.23;;;2.57;;
41897;SDS011;27576;53.366;-1.498;2024-01-15T09:32:05;2.90;;;1.83;;
41897;SDS011;27576;53.366;-1.498;2024-01-15T09:34:32;4.00;;;1.90;;
41897;SDS011;27576;53.366;-1.498;2024-01-15T09:36:58;6.87;;;2.50;;
41897;SDS011;27576;53.366;-1.498;2024-01-15T09:39:25;5.10;;;2.63;;
41897;SDS011;27576;53.366;-1.498;2024-01-15T09:41:51;4.23;;;2.37;;
41897;SDS011;27576;53.366;-1.498;2024-01-15T09:44:17;3.43;;;1.90;;
41897;SDS011;27576;53.366;-1.498;2024-01-15T09:46:44;7.93;;;2.67;;
41897;SDS011;27576;53.366;-1.498;2024-01-15T09:49:10;6.17;;;2.13;;
41897;SDS011;27576;53.366;-1.498;2024-01-15T09:51:36;4.50;;;2.13;;
41897;SDS011;27576;53.366;-1.498;2024-01-15T09:54:03;15.97;;;7.20;;
41897;SDS011;27576;53.366;-1.498;2024-01-15T09:56:29;6.63;;;4.30;;
41897;SDS011;27576;53.366;-1.498;2024-01-15T09:58:55;28.03;;;16.13;;
41897;SDS011;27576;53.366;-1.498;2024-01-15T10:01:22;19.60;;;11.07;;
41897;SDS011;27576;53.366;-1.498;2024-01-15T10:03:48;10.87;;;5.53;;
41897;SDS011;27576;53.366;-1.498;2024-01-15T10:06:15;6.17;;;3.83;;
41897;SDS011;27576;53.366;-1.498;2024-01-15T10:08:47;6.67;;;4.53;;
41897;SDS011;27576;53.366;-1.498;2024-01-15T10:11:14;6.30;;;3.20;;
41897;SDS011;27576;53.366;-1.498;2024-01-15T10:13:41;5.40;;;2.30;;
41897;SDS011;27576;53.366;-1.498;2024-01-15T10:16:11;2.67;;;1.87;;
41897;SDS011;27576;53.366;-1.498;2024-01-15T10:18:36;4.17;;;3.00;;
41897;SDS011;27576;53.366;-1.498;2024-01-15T10:21:04;5.07;;;2.97;;
41897;SDS011;27576;53.366;-1.498;2024-01-15T10:23:32;4.00;;;2.97;;
41897;SDS011;27576;53.366;-1.498;2024-01-15T10:25:58;7.00;;;2.73;;
41897;SDS011;27576;53.366;-1.498;2024-01-15T10:28:25;2.83;;;2.50;;
41897;SDS011;27576;53.366;-1.498;2024-01-15T10:30:55;6.83;;;2.40;;
41897;SDS011;27576;53.366;-1.498;2024-01-15T10:33:22;6.43;;;3.27;;
41897;SDS011;27576;53.366;-1.498;2024-01-15T10:35:54;17.27;;;11.20;;
41897;SDS011;27576;53.366;-1.498;2024-01-15T10:38:21;10.87;;;6.63;;
41897;SDS011;27576;53.366;-1.498;2024-01-15T10:40:51;8.27;;;3.73;;
41897;SDS011;27576;53.366;-1.498;2024-01-15T10:43:17;15.47;;;8.67;;
41897;SDS011;27576;53.366;-1.498;2024-01-15T10:45:46;10.27;;;5.93;;
41897;SDS011;27576;53.366;-1.498;2024-01-15T10:48:12;9.43;;;5.97;;
41897;SDS011;27576;53.366;-1.498;2024-01-15T10:50:38;5.53;;;3.40;;
41897;SDS011;27576;53.366;-1.498;2024-01-15T10:53:04;9.33;;;3.47;;
41897;SDS011;27576;53.366;-1.498;2024-01-15T10:55:30;10.63;;;4.93;;
41897;SDS011;27576;53.366;-1.498;2024-01-15T10:57:56;8.77;;;4.77;;
41897;SDS011;27576;53.366;-1.498;2024-01-15T11:00:22;6.27;;;2.87;;
41897;SDS011;27576;53.366;-1.498;2024-01-15T11:02:47;6.97;;;2.70;;
41897;SDS011;27576;53.366;-1.498;2024-01-15T11:05:13;5.07;;;3.10;;
41897;SDS011;27576;53.366;-1.498;2024-01-15T11:07:39;7.70;;;2.60;;
41897;SDS011;27576;53.366;-1.498;2024-01-15T11:10:06;7.13;;;2.53;;
41897;SDS011;27576;53.366;-1.498;2024-01-15T11:12:35;8.63;;;3.00;;
41897;SDS011;27576;53.366;-1.498;2024-01-15T11:15:01;3.93;;;2.73;;
41897;SDS011;27576;53.366;-1.498;2024-01-15T11:20:25;2.90;;;1.77;;
41897;SDS011;27576;53.366;-1.498;2024-01-15T11:22:51;3.63;;;2.37;;
41897;SDS011;27576;53.366;-1.498;2024-01-15T11:25:20;8.10;;;2.53;;
41897;SDS011;27576;53.366;-1.498;2024-01-15T11:27:46;2.83;;;2.13;;
41897;SDS011;27576;53.366;-1.498;2024-01-15T11:30:16;5.47;;;2.00;;
41897;SDS011;27576;53.366;-1.498;2024-01-15T11:32:44;5.37;;;3.30;;
41897;SDS011;27576;53.366;-1.498;2024-01-15T11:35:12;8.07;;;4.40;;
41897;SDS011;27576;53.366;-1.498;2024-01-15T11:43:01;8.17;;;5.10;;
41897;SDS011;27576;53.366;-1.498;2024-01-15T11:45:27;10.90;;;4.00;;
41897;SDS011;27576;53.366;-1.498;2024-01-15T11:50:40;4.17;;;2.17;;
41897;SDS011;27576;53.366;-1.498;2024-01-15T11:53:12;6.70;;;3.20;;
41897;SDS011;27576;53.366;-1.498;2024-01-15T11:55:41;7.00;;;3.40;;
41897;SDS011;27576;53.366;-1.498;2024-01-15T11:58:10;10.40;;;3.47;;
41897;SDS011;27576;53.366;-1.498;2024-01-15T12:00:47;9.33;;;4.00;;
41897;SDS011;27576;53.366;-1.498;2024-01-15T12:03:14;11.57;;;5.37;;
41897;SDS011;27576;53.366;-1.498;2024-01-15T12:05:39;15.97;;;8.90;;
41897;SDS011;27576;53.366;-1.498;2024-01-15T12:08:06;19.57;;;11.80;;
41897;SDS011;27576;53.366;-1.498;2024-01-15T12:10:35;9.27;;;5.65;;
41897;SDS011;27576;53.366;-1.498;2024-01-15T12:15:32;24.67;;;10.77;;
41897;SDS011;27576;53.366;-1.498;2024-01-15T12:18:01;16.30;;;8.37;;
41897;SDS011;27576;53.366;-1.498;2024-01-15T12:20:28;13.77;;;7.93;;
41897;SDS011;27576;53.366;-1.498;2024-01-15T12:22:54;13.20;;;6.13;;
41897;SDS011;27576;53.366;-1.498;2024-01-15T12:25:21;8.53;;;5.40;;
41897;SDS011;27576;53.366;-1.498;2024-01-15T12:27:47;17.13;;;8.35;;
41897;SDS011;27576;53.366;-1.498;2024-01-15T12:30:13;8.75;;;5.18;;
41897;SDS011;27576;53.366;-1.498;2024-01-15T12:32:41;8.53;;;6.67;;
41897;SDS011;27576;53.366;-1.498;2024-01-15T12:35:07;41.77;;;22.77;;
41897;SDS011;27576;53.366;-1.498;2024-01-15T12:37:35;32.67;;;17.20;;
41897;SDS011;27576;53.366;-1.498;2024-01-15T12:40:11;13.13;;;6.67;;
41897;SDS011;27576;53.366;-1.498;2024-01-15T12:42:39;18.37;;;8.37;;
41897;SDS011;27576;53.366;-1.498;2024-01-15T12:45:08;10.83;;;5.40;;
41897;SDS011;27576;53.366;-1.498;2024-01-15T12:47:35;8.47;;;5.03;;
41897;SDS011;27576;53.366;-1.498;2024-01-15T12:50:01;16.58;;;13.13;;
41897;SDS011;27576;53.366;-1.498;2024-01-15T12:52:27;9.18;;;5.47;;
41897;SDS011;27576;53.366;-1.498;2024-01-15T12:54:54;6.43;;;3.80;;
41897;SDS011;27576;53.366;-1.498;2024-01-15T12:57:20;21.65;;;7.95;;
41897;SDS011;27576;53.366;-1.498;2024-01-15T12:59:45;11.23;;;4.97;;
41897;SDS011;27576;53.366;-1.498;2024-01-15T13:02:12;9.43;;;5.70;;
41897;SDS011;27576;53.366;-1.498;2024-01-15T13:04:38;9.27;;;4.80;;
41897;SDS011;27576;53.366;-1.498;2024-01-15T13:07:05;10.52;;;4.38;;
41897;SDS011;27576;53.366;-1.498;2024-01-15T13:09:30;10.15;;;4.10;;
41897;SDS011;27576;53.366;-1.498;2024-01-15T13:11:56;11.90;;;5.85;;
41897;SDS011;27576;53.366;-1.498;2024-01-15T13:14:22;9.70;;;5.28;;
41897;SDS011;27576;53.366;-1.498;2024-01-15T13:16:48;10.95;;;5.05;;
41897;SDS011;27576;53.366;-1.498;2024-01-15T13:19:13;10.52;;;4.55;;
41897;SDS011;27576;53.366;-1.498;2024-01-15T13:21:40;8.00;;;5.00;;
41897;SDS011;27576;53.366;-1.498;2024-01-15T13:24:06;10.60;;;5.13;;
41897;SDS011;27576;53.366;-1.498;2024-01-15T13:26:32;8.57;;;4.72;;
41897;SDS011;27576;53.366;-1.498;2024-01-15T13:28:59;7.03;;;3.60;;
41897;SDS011;27576;53.366;-1.498;2024-01-15T13:31:25;6.10;;;2.83;;
41897;SDS011;27576;53.366;-1.498;2024-01-15T13:33:51;7.15;;;2.65;;
41897;SDS011;27576;53.366;-1.498;2024-01-15T13:36:16;8.98;;;2.90;;
41897;SDS011;27576;53.366;-1.498;2024-01-15T13:38:41;11.38;;;3.42;;
41897;SDS011;27576;53.366;-1.498;2024-01-15T13:41:07;5.88;;;2.42;;
41897;SDS011;27576;53.366;-1.498;2024-01-15T13:43:33;5.32;;;3.10;;
41897;SDS011;27576;53.366;-1.498;2024-01-15T13:45:58;3.83;;;2.47;;
41897;SDS011;27576;53.366;-1.498;2024-01-15T13:48:24;4.35;;;2.70;;
41897;SDS011;27576;53.366;-1.498;2024-01-15T13:50:51;8.85;;;3.53;;
41897;SDS011;27576;53.366;-1.498;2024-01-15T13:53:17;7.22;;;2.60;;
41897;SDS011;27576;53.366;-1.498;2024-01-15T13:55:44;10.95;;;2.92;;
41897;SDS011;27576;53.366;-1.498;2024-01-15T13:58:09;7.22;;;3.10;;
41897;SDS011;27576;53.366;-1.498;2024-01-15T14:00:35;8.02;;;3.20;;
41897;SDS011;27576;53.366;-1.498;2024-01-15T14:03:00;7.45;;;3.00;;
41897;SDS011;27576;53.366;-1.498;2024-01-15T14:05:26;5.03;;;2.30;;
41897;SDS011;27576;53.366;-1.498;2024-01-15T14:07:52;5.68;;;2.58;;
41897;SDS011;27576;53.366;-1.498;2024-01-15T14:10:17;8.35;;;3.10;;
41897;SDS011;27576;53.366;-1.498;2024-01-15T14:12:42;7.30;;;3.78;;
41897;SDS011;27576;53.366;-1.498;2024-01-15T14:15:08;4.88;;;2.67;;
41897;SDS011;27576;53.366;-1.498;2024-01-15T14:17:34;5.03;;;2.63;;
41897;SDS011;27576;53.366;-1.498;2024-01-15T14:19:59;4.97;;;1.90;;
41897;SDS011;27576;53.366;-1.498;2024-01-15T14:22:25;8.32;;;3.58;;
41897;SDS011;27576;53.366;-1.498;2024-01-15T14:24:50;9.00;;;3.65;;
41897;SDS011;27576;53.366;-1.498;2024-01-15T14:27:16;6.35;;;3.83;;
41897;SDS011;27576;53.366;-1.498;2024-01-15T14:29:41;9.57;;;3.55;;
41897;SDS011;27576;53.366;-1.498;2024-01-15T14:32:07;7.22;;;3.03;;
41897;SDS011;27576;53.366;-1.498;2024-01-15T14:34:32;9.63;;;3.65;;
41897;SDS011;27576;53.366;-1.498;2024-01-15T14:36:58;7.10;;;2.83;;
41897;SDS011;27576;53.366;-1.498;2024-01-15T14:39:23;6.30;;;2.50;;